createdAt,value
2023-03-20T00:00:04.101Z,38.83
2023-03-20T00:02:31.635Z,40.10
2023-03-20T00:04:58.837Z,39.73
2023-03-20T00:07:26.437Z,38.17
2023-03-20T00:09:54.887Z,38.97
2023-03-20T00:12:24.746Z,36.20
2023-03-20T00:14:52.181Z,37.60
2023-03-20T00:17:20.508Z,34.70
2023-03-20T00:19:47.781Z,34.73
2023-03-20T00:22:14.892Z,35.23
2023-03-20T00:24:42.013Z,33.90
2023-03-20T00:27:10.911Z,36.10
2023-03-20T00:29:38.098Z,34.43
2023-03-20T00:32:06.563Z,36.87
2023-03-20T00:34:33.706Z,40.20
2023-03-20T00:37:00.822Z,37.97
2023-03-20T00:39:27.938Z,39.37
2023-03-20T00:41:58.520Z,43.10
2023-03-20T00:44:27.145Z,42.03
2023-03-20T00:46:55.089Z,45.00
2023-03-20T00:49:29.222Z,44.50
2023-03-20T00:51:56.526Z,60.27
2023-03-20T00:54:23.707Z,82.13
2023-03-20T00:56:58.532Z,57.07
2023-03-20T00:59:26.719Z,54.80
2023-03-20T01:01:53.960Z,57.47
2023-03-20T01:04:21.260Z,53.53
2023-03-20T01:06:48.384Z,54.43
2023-03-20T01:09:15.504Z,53.07
2023-03-20T01:11:42.652Z,54.80
2023-03-20T01:14:13.402Z,50.90
2023-03-20T01:16:40.808Z,49.37
2023-03-20T01:19:08.055Z,46.10
2023-03-20T01:21:35.294Z,49.30
2023-03-20T01:24:02.395Z,47.47
2023-03-20T01:26:36.845Z,47.17
2023-03-20T01:29:04.569Z,49.53
2023-03-20T01:31:31.748Z,48.57
2023-03-20T01:33:58.914Z,55.13
2023-03-20T01:36:26.193Z,53.13
2023-03-20T01:38:57.378Z,52.33
2023-03-20T01:41:25.240Z,48.70
2023-03-20T01:43:52.373Z,49.90
2023-03-20T01:46:29.932Z,48.83
2023-03-20T01:48:58.419Z,48.80
2023-03-20T01:51:29.527Z,49.33
2023-03-20T01:54:00.615Z,49.30
2023-03-20T01:56:27.712Z,50.20
2023-03-20T01:59:02.354Z,43.53
2023-03-20T02:01:29.525Z,37.77
2023-03-20T02:03:57.393Z,40.57
2023-03-20T02:06:25.378Z,38.47
2023-03-20T02:08:54.324Z,33.80
2023-03-20T02:11:25.369Z,34.70
2023-03-20T02:13:52.700Z,36.90
2023-03-20T02:16:20.416Z,40.20
2023-03-20T02:18:48.934Z,40.90
2023-03-20T02:21:25.990Z,37.97
2023-03-20T02:23:55.990Z,34.47
2023-03-20T02:26:42.564Z,29.77
2023-03-20T02:29:16.873Z,32.40
2023-03-20T02:32:13.837Z,26.90
2023-03-20T02:34:44.068Z,24.70
2023-03-20T02:37:25.363Z,26.20
2023-03-20T02:40:11.354Z,29.23
2023-03-20T02:42:46.058Z,28.63
2023-03-20T02:45:26.173Z,26.07
2023-03-20T02:47:57.422Z,23.97
2023-03-20T02:50:24.571Z,24.10
2023-03-20T02:52:57.848Z,24.63
2023-03-20T02:55:32.856Z,23.27
2023-03-20T02:58:02.611Z,23.90
2023-03-20T03:00:37.226Z,24.33
2023-03-20T03:03:18.911Z,26.70
2023-03-20T03:05:49.045Z,32.50
2023-03-20T03:08:16.654Z,38.03
2023-03-20T03:10:54.480Z,35.77
2023-03-20T03:13:22.376Z,40.37
2023-03-20T03:15:50.363Z,39.97
2023-03-20T03:18:19.529Z,41.73
2023-03-20T03:20:46.680Z,41.47
2023-03-20T03:23:24.126Z,39.70
2023-03-20T03:25:51.791Z,40.50
2023-03-20T03:28:38.983Z,41.70
2023-03-20T03:31:07.162Z,38.73
2023-03-20T03:33:35.964Z,38.17
2023-03-20T03:36:22.387Z,40.47
2023-03-20T03:38:53.074Z,37.50
2023-03-20T03:41:23.334Z,39.97
2023-03-20T03:43:53.065Z,40.47
2023-03-20T03:46:21.632Z,37.63
2023-03-20T03:48:50.080Z,40.53
2023-03-20T03:51:17.644Z,44.37
2023-03-20T03:53:53.312Z,45.47
2023-03-20T03:56:21.314Z,45.50
2023-03-20T03:58:53.075Z,57.90
2023-03-20T04:01:20.263Z,57.97
2023-03-20T04:03:49.816Z,63.80
2023-03-20T04:06:16.897Z,59.53
2023-03-20T04:08:44.103Z,52.43
2023-03-20T04:11:17.710Z,41.90
2023-03-20T04:13:45.951Z,40.73
2023-03-20T04:16:14.268Z,40.37
2023-03-20T04:18:41.773Z,38.20
2023-03-20T04:21:09.139Z,40.27
2023-03-20T04:23:36.529Z,37.57
2023-03-20T04:26:03.709Z,34.67
2023-03-20T04:28:30.868Z,38.03
2023-03-20T04:30:58.729Z,36.27
2023-03-20T04:33:26.368Z,36.80
2023-03-20T04:35:53.587Z,37.83
2023-03-20T04:38:20.900Z,41.40
2023-03-20T04:40:48.113Z,35.47
2023-03-20T04:43:15.605Z,39.13
2023-03-20T04:45:42.785Z,35.07
2023-03-20T04:48:10.267Z,36.93
2023-03-20T04:50:37.500Z,40.60
2023-03-20T04:53:04.641Z,40.60
2023-03-20T04:55:31.752Z,37.97
2023-03-20T04:57:58.918Z,39.23
2023-03-20T05:00:26.246Z,42.93
2023-03-20T05:02:53.392Z,41.93
2023-03-20T05:05:20.791Z,42.33
2023-03-20T05:07:48.265Z,41.83
2023-03-20T05:10:15.500Z,44.87
2023-03-20T05:12:42.709Z,41.97
2023-03-20T05:15:10.318Z,43.20
2023-03-20T05:17:37.471Z,37.80
2023-03-20T05:20:05.236Z,35.50
2023-03-20T05:22:32.368Z,40.23
2023-03-20T05:25:00.993Z,41.30
2023-03-20T05:27:28.131Z,51.43
2023-03-20T05:29:55.463Z,49.13
2023-03-20T05:32:22.576Z,47.20
2023-03-20T05:34:49.723Z,50.20
2023-03-20T05:37:16.828Z,48.00
2023-03-20T05:39:43.954Z,44.47
2023-03-20T05:42:11.098Z,40.57
2023-03-20T05:44:38.207Z,41.60
2023-03-20T05:47:05.398Z,43.37
2023-03-20T05:49:32.532Z,46.37
2023-03-20T05:51:59.657Z,45.10
2023-03-20T05:54:26.833Z,40.90
2023-03-20T05:56:54.019Z,40.23
2023-03-20T05:59:21.615Z,42.47
2023-03-20T06:01:48.737Z,41.30
2023-03-20T06:04:16.004Z,43.30
2023-03-20T06:06:43.178Z,44.63
2023-03-20T06:09:10.516Z,48.33
2023-03-20T06:11:37.863Z,48.87
2023-03-20T06:14:05.000Z,53.60
2023-03-20T06:16:32.107Z,58.30
2023-03-20T06:18:59.508Z,57.90
2023-03-20T06:21:26.640Z,59.67
2023-03-20T06:23:54.756Z,63.27
2023-03-20T06:26:22.145Z,64.77
2023-03-20T06:28:49.269Z,74.43
2023-03-20T06:31:16.972Z,77.43
2023-03-20T06:33:45.247Z,80.57
2023-03-20T06:36:12.732Z,75.10
2023-03-20T06:38:39.898Z,91.70
2023-03-20T06:41:07.206Z,56.80
2023-03-20T06:43:34.561Z,47.83
2023-03-20T06:46:01.705Z,33.83
2023-03-20T06:48:28.887Z,31.50
2023-03-20T06:50:56.195Z,29.73
2023-03-20T06:53:23.400Z,27.57
2023-03-20T06:55:52.500Z,28.53
2023-03-20T06:58:19.627Z,31.30
2023-03-20T07:00:46.750Z,28.40
2023-03-20T07:03:13.924Z,24.57
2023-03-20T07:05:41.164Z,21.53
2023-03-20T07:08:08.330Z,23.17
2023-03-20T07:10:35.712Z,23.30
2023-03-20T07:13:02.825Z,30.80
2023-03-20T07:15:30.171Z,29.57
2023-03-20T07:17:57.407Z,29.03
2023-03-20T07:20:24.526Z,25.90
2023-03-20T07:22:51.708Z,23.70
2023-03-20T07:25:24.001Z,21.90
2023-03-20T07:27:59.264Z,19.40
2023-03-20T07:30:26.437Z,19.30
2023-03-20T07:32:53.670Z,24.58
2023-03-20T07:35:21.071Z,33.53
2023-03-20T07:37:48.240Z,29.60
2023-03-20T07:40:15.507Z,26.27
2023-03-20T07:42:42.610Z,24.52
2023-03-20T07:45:10.123Z,22.70
2023-03-20T07:47:37.346Z,22.67
2023-03-20T07:50:06.996Z,22.02
2023-03-20T07:52:35.272Z,23.70
2023-03-20T07:55:02.385Z,25.10
2023-03-20T07:57:29.510Z,21.38
2023-03-20T07:59:56.808Z,20.17
2023-03-20T08:02:23.920Z,21.77
2023-03-20T08:04:51.024Z,24.35
2023-03-20T08:07:18.275Z,20.20
2023-03-20T08:09:45.637Z,15.20
2023-03-20T08:12:12.751Z,15.27
2023-03-20T08:14:39.968Z,17.08
2023-03-20T08:17:14.752Z,11.57
2023-03-20T08:19:43.222Z,11.48
2023-03-20T08:22:10.351Z,10.95
2023-03-20T08:24:37.510Z,14.90
2023-03-20T08:27:04.708Z,15.38
2023-03-20T08:29:31.805Z,10.90
2023-03-20T08:31:58.913Z,11.13
2023-03-20T08:34:26.458Z,8.52
2023-03-20T08:36:53.704Z,8.63
2023-03-20T08:39:21.821Z,7.13
2023-03-20T08:41:48.965Z,7.38
2023-03-20T08:44:16.445Z,7.13
2023-03-20T08:46:44.820Z,7.50
2023-03-20T08:49:11.979Z,7.03
2023-03-20T08:51:39.101Z,7.97
2023-03-20T08:54:06.502Z,7.45
2023-03-20T08:56:33.695Z,7.80
2023-03-20T08:59:00.814Z,7.95
2023-03-20T09:01:38.506Z,6.82
2023-03-20T09:04:15.289Z,6.75
2023-03-20T09:06:42.432Z,7.28
2023-03-20T09:09:09.551Z,7.28
2023-03-20T09:11:37.088Z,7.05
2023-03-20T09:14:04.240Z,9.43
2023-03-20T09:16:31.568Z,7.93
2023-03-20T09:18:58.798Z,7.80
2023-03-20T09:21:26.134Z,7.50
2023-03-20T09:23:53.266Z,7.13
2023-03-20T09:26:20.528Z,7.35
2023-03-20T09:28:48.231Z,7.32
2023-03-20T09:31:18.223Z,8.25
2023-03-20T09:33:45.591Z,8.68
2023-03-20T09:36:13.139Z,7.53
2023-03-20T09:38:42.023Z,8.07
2023-03-20T09:41:13.512Z,8.10
2023-03-20T09:43:49.866Z,7.50
2023-03-20T09:46:19.870Z,8.32
2023-03-20T09:48:53.907Z,8.23
2023-03-20T09:51:27.614Z,7.50
2023-03-20T09:54:01.255Z,7.70
2023-03-20T09:56:28.754Z,7.90
2023-03-20T09:58:56.571Z,8.43
2023-03-20T10:01:25.181Z,9.13
2023-03-20T10:03:58.983Z,9.02
2023-03-20T10:06:26.297Z,9.88
2023-03-20T10:08:55.116Z,8.02
2023-03-20T10:11:34.340Z,10.70
2023-03-20T10:14:04.264Z,8.55
2023-03-20T10:16:31.407Z,8.27
2023-03-20T10:19:03.099Z,8.10
2023-03-20T10:21:50.484Z,7.97
2023-03-20T10:24:19.737Z,7.82
2023-03-20T10:26:47.875Z,7.53
2023-03-20T10:29:35.480Z,7.90
2023-03-20T10:32:04.641Z,7.63
2023-03-20T10:34:45.012Z,7.65
2023-03-20T10:37:21.726Z,7.95
2023-03-20T10:40:07.382Z,7.20
2023-03-20T10:42:35.639Z,7.93
2023-03-20T10:45:03.330Z,6.60
2023-03-20T10:47:31.552Z,7.13
2023-03-20T10:50:02.445Z,8.18
2023-03-20T10:52:30.876Z,10.48
2023-03-20T10:55:01.770Z,15.18
2023-03-20T10:57:31.993Z,7.55
2023-03-20T10:59:59.223Z,8.32
2023-03-20T11:02:28.398Z,7.60
2023-03-20T11:04:55.588Z,6.70
2023-03-20T11:07:22.692Z,6.45
2023-03-20T11:10:05.161Z,6.97
2023-03-20T11:12:35.939Z,7.13
2023-03-20T11:15:15.374Z,5.63
2023-03-20T11:17:42.603Z,6.40
2023-03-20T11:20:11.826Z,6.43
2023-03-20T11:22:39.006Z,6.22
2023-03-20T11:25:06.249Z,5.68
2023-03-20T11:27:33.923Z,5.82
2023-03-20T11:30:01.495Z,5.40
2023-03-20T11:32:35.811Z,6.20
2023-03-20T11:35:11.979Z,5.35
2023-03-20T11:37:44.032Z,5.85
2023-03-20T11:40:11.118Z,6.13
2023-03-20T11:42:38.237Z,7.13
2023-03-20T11:45:07.966Z,5.97
2023-03-20T11:47:35.729Z,5.20
2023-03-20T11:50:04.025Z,5.63
2023-03-20T11:52:34.800Z,5.57
2023-03-20T11:55:03.297Z,5.47
2023-03-20T11:57:30.698Z,5.68
2023-03-20T11:59:57.809Z,5.80
2023-03-20T12:02:25.008Z,5.35
2023-03-20T12:04:52.196Z,6.10
2023-03-20T12:07:19.310Z,6.93
2023-03-20T12:09:46.419Z,6.40
2023-03-20T12:12:19.689Z,7.00
2023-03-20T12:14:55.978Z,7.25
2023-03-20T12:17:26.524Z,6.18
2023-03-20T12:19:53.943Z,7.97
2023-03-20T12:22:25.133Z,9.13
2023-03-20T12:25:12.540Z,9.63
2023-03-20T12:27:47.210Z,7.47
2023-03-20T12:30:15.020Z,7.55
2023-03-20T12:32:47.417Z,7.97
2023-03-20T12:35:27.600Z,7.97
2023-03-20T12:37:54.720Z,8.25
2023-03-20T12:40:27.791Z,8.20
2023-03-20T12:43:01.663Z,8.88
2023-03-20T12:45:39.803Z,9.75
2023-03-20T12:48:13.084Z,15.98
2023-03-20T12:50:40.577Z,17.95
2023-03-20T12:53:07.739Z,11.88
2023-03-20T12:55:53.557Z,9.27
2023-03-20T12:58:39.490Z,10.15
2023-03-20T13:01:12.749Z,8.70
2023-03-20T13:03:45.852Z,7.75
2023-03-20T13:06:26.457Z,8.38
2023-03-20T13:09:12.347Z,11.07
2023-03-20T13:11:58.273Z,8.77
2023-03-20T13:14:32.349Z,8.63
2023-03-20T13:17:02.683Z,9.23
2023-03-20T13:19:45.111Z,11.57
2023-03-20T13:22:24.318Z,9.52
2023-03-20T13:24:51.910Z,15.50
2023-03-20T13:27:22.115Z,10.60
2023-03-20T13:30:12.355Z,12.00
2023-03-20T13:32:39.637Z,9.15
2023-03-20T13:35:15.752Z,9.32
2023-03-20T13:37:44.414Z,15.80
2023-03-20T13:40:11.559Z,13.63
2023-03-20T13:42:40.542Z,9.65
2023-03-20T13:45:09.245Z,9.98
2023-03-20T13:47:36.400Z,9.60
2023-03-20T13:50:25.174Z,11.57
2023-03-20T13:53:18.636Z,10.50
2023-03-20T13:55:49.250Z,10.32
2023-03-20T13:58:20.596Z,12.13
2023-03-20T14:00:52.783Z,10.32
2023-03-20T14:03:20.024Z,10.65
2023-03-20T14:05:47.522Z,12.23
2023-03-20T14:08:33.415Z,10.70
2023-03-20T14:11:07.896Z,10.25
2023-03-20T14:13:35.275Z,9.93
2023-03-20T14:16:04.224Z,9.75
2023-03-20T14:18:31.483Z,9.30
2023-03-20T14:21:00.716Z,9.60
2023-03-20T14:23:37.547Z,12.60
2023-03-20T14:26:16.914Z,15.00
2023-03-20T14:28:44.778Z,10.27
2023-03-20T14:31:12.952Z,10.23
2023-03-20T14:33:43.735Z,10.05
2023-03-20T14:36:11.915Z,10.63
2023-03-20T14:38:42.076Z,9.77
2023-03-20T14:41:21.197Z,13.15
2023-03-20T14:43:52.243Z,11.00
2023-03-20T14:46:22.156Z,11.32
2023-03-20T14:48:50.566Z,11.07
2023-03-20T14:51:20.891Z,10.60
2023-03-20T14:54:11.079Z,10.48
2023-03-20T14:56:38.227Z,10.57
2023-03-20T14:59:05.769Z,10.27
2023-03-20T15:01:39.019Z,10.05
2023-03-20T15:04:10.199Z,11.07
2023-03-20T15:06:43.461Z,10.30
2023-03-20T15:09:10.936Z,10.35
2023-03-20T15:11:38.089Z,11.90
2023-03-20T15:14:06.826Z,15.88
2023-03-20T15:16:34.570Z,16.13
2023-03-20T15:19:01.858Z,17.92
2023-03-20T15:21:38.850Z,16.15
2023-03-20T15:24:06.119Z,18.80
2023-03-20T15:26:33.830Z,17.40
2023-03-20T15:29:04.964Z,17.88
2023-03-20T15:31:33.024Z,22.20
2023-03-20T15:34:00.664Z,40.65
2023-03-20T15:36:28.879Z,34.78
2023-03-20T15:39:02.629Z,28.23
2023-03-20T15:41:30.566Z,27.67
2023-03-20T15:44:23.798Z,26.10
2023-03-20T15:47:00.055Z,22.88
2023-03-20T15:49:27.614Z,21.50
2023-03-20T15:51:55.336Z,22.90
2023-03-20T15:54:22.598Z,14.85
2023-03-20T15:56:51.542Z,14.20
2023-03-20T15:59:20.317Z,24.08
2023-03-20T16:01:47.671Z,28.27
2023-03-20T16:04:15.595Z,22.58
2023-03-20T16:06:46.542Z,18.30
2023-03-20T16:09:14.532Z,17.42
2023-03-20T16:11:42.342Z,15.38
2023-03-20T16:14:17.048Z,14.10
2023-03-20T16:16:44.438Z,21.73
2023-03-20T16:19:12.311Z,14.73
2023-03-20T16:21:40.330Z,12.93
2023-03-20T16:24:09.063Z,18.35
2023-03-20T16:26:37.946Z,12.60
2023-03-20T16:29:05.427Z,14.85
2023-03-20T16:31:34.101Z,14.70
2023-03-20T16:34:08.591Z,12.98
2023-03-20T16:36:36.672Z,16.63
2023-03-20T16:39:04.154Z,14.27
2023-03-20T16:41:41.062Z,12.85
2023-03-20T16:44:15.223Z,13.25
2023-03-20T16:46:57.809Z,13.05
2023-03-20T16:49:34.543Z,13.30
2023-03-20T16:52:02.652Z,20.17
2023-03-20T16:54:30.985Z,15.05
2023-03-20T16:56:58.133Z,33.35
2023-03-20T16:59:25.471Z,31.88
2023-03-20T17:01:54.237Z,37.47
2023-03-20T17:04:22.384Z,48.92
2023-03-20T17:07:09.843Z,66.90
2023-03-20T17:09:36.983Z,96.43
2023-03-20T17:12:13.411Z,79.47
2023-03-20T17:14:40.751Z,67.85
2023-03-20T17:17:19.556Z,64.47
2023-03-20T17:19:47.186Z,95.03
2023-03-20T17:22:15.212Z,115.80
2023-03-20T17:24:42.421Z,106.97
2023-03-20T17:27:10.323Z,89.15
2023-03-20T17:29:37.478Z,78.15
2023-03-20T17:32:10.049Z,75.35
2023-03-20T17:34:37.667Z,76.07
2023-03-20T17:37:04.849Z,74.75
2023-03-20T17:39:32.034Z,76.53
2023-03-20T17:41:59.165Z,75.95
2023-03-20T17:44:26.391Z,70.15
2023-03-20T17:46:58.625Z,68.85
2023-03-20T17:49:27.375Z,69.28
2023-03-20T17:51:55.044Z,57.42
2023-03-20T17:54:22.251Z,59.35
2023-03-20T17:56:49.392Z,58.80
2023-03-20T17:59:16.621Z,58.75
2023-03-20T18:01:43.940Z,59.60
2023-03-20T18:04:11.140Z,56.47
2023-03-20T18:06:38.375Z,61.15
2023-03-20T18:09:05.909Z,59.42
2023-03-20T18:11:33.161Z,57.67
2023-03-20T18:14:02.032Z,52.60
2023-03-20T18:16:29.252Z,50.28
2023-03-20T18:18:57.005Z,42.90
2023-03-20T18:21:24.226Z,67.65
2023-03-20T18:23:51.411Z,61.95
2023-03-20T18:26:20.002Z,53.75
2023-03-20T18:28:47.320Z,55.70
2023-03-20T18:31:18.740Z,54.38
2023-03-20T18:33:49.364Z,58.42
2023-03-20T18:36:17.219Z,54.65
2023-03-20T18:38:44.476Z,61.28
2023-03-20T18:41:11.882Z,61.50
2023-03-20T18:43:42.724Z,71.07
2023-03-20T18:46:16.320Z,72.90
2023-03-20T18:48:43.550Z,67.07
2023-03-20T18:51:11.004Z,61.63
2023-03-20T18:53:38.328Z,76.82
2023-03-20T18:56:05.656Z,119.43
2023-03-20T18:58:32.891Z,110.22
2023-03-20T19:01:00.641Z,108.40
2023-03-20T19:03:28.773Z,88.28
2023-03-20T19:05:57.500Z,69.90
2023-03-20T19:08:24.686Z,102.22
2023-03-20T19:10:51.931Z,104.43
2023-03-20T19:13:19.789Z,106.25
2023-03-20T19:15:47.076Z,97.93
2023-03-20T19:18:18.694Z,100.85
2023-03-20T19:20:48.012Z,95.95
2023-03-20T19:23:15.995Z,87.88
2023-03-20T19:25:43.576Z,84.95
2023-03-20T19:28:34.561Z,66.47
2023-03-20T19:31:05.797Z,55.40
2023-03-20T19:33:33.377Z,133.50
2023-03-20T19:36:03.753Z,64.70
2023-03-20T19:38:31.405Z,68.00
2023-03-20T19:40:59.796Z,78.15
2023-03-20T19:43:29.012Z,102.22
2023-03-20T19:45:58.735Z,99.07
2023-03-20T19:48:50.408Z,90.40
2023-03-20T19:51:21.187Z,69.00
2023-03-20T19:53:48.516Z,59.45
2023-03-20T19:56:16.045Z,50.25
2023-03-20T19:58:43.434Z,81.10
2023-03-20T20:01:15.428Z,53.00
2023-03-20T20:03:42.914Z,54.25
2023-03-20T20:06:10.107Z,54.97
2023-03-20T20:08:48.978Z,57.17
2023-03-20T20:11:17.591Z,54.28
2023-03-20T20:14:04.834Z,58.38
2023-03-20T20:16:33.435Z,51.80
2023-03-20T20:19:00.867Z,54.10
2023-03-20T20:22:13.361Z,55.25
2023-03-20T20:24:16.572Z,59.60
2023-03-20T20:26:53.758Z,58.47
2023-03-20T20:29:24.471Z,57.03
2023-03-20T20:31:51.834Z,56.72
2023-03-20T20:39:53.940Z,119.13
2023-03-20T20:42:21.531Z,144.13
2023-03-20T20:44:48.745Z,121.47
2023-03-20T20:47:16.116Z,120.82
2023-03-20T20:49:43.514Z,116.82
2023-03-20T20:52:10.827Z,102.68
2023-03-20T20:54:41.619Z,103.43
2023-03-20T20:57:10.641Z,102.32
2023-03-20T20:59:38.543Z,106.82
2023-03-20T21:02:12.289Z,93.60
2023-03-20T21:04:40.102Z,91.32
2023-03-20T21:07:10.741Z,82.65
2023-03-20T21:09:38.659Z,81.28
2023-03-20T21:12:06.004Z,77.55
2023-03-20T21:14:33.224Z,78.90
2023-03-20T21:17:03.590Z,78.75
2023-03-20T21:19:31.181Z,81.45
2023-03-20T21:21:58.452Z,88.63
2023-03-20T21:24:32.640Z,95.00
2023-03-20T21:27:19.266Z,96.78
2023-03-20T21:29:50.300Z,96.13
2023-03-20T21:32:19.123Z,95.47
2023-03-20T21:34:46.486Z,95.95
2023-03-20T21:38:13.175Z,103.55
2023-03-20T21:40:02.310Z,104.55
2023-03-20T21:42:29.609Z,114.22
2023-03-20T21:48:27.070Z,124.57
2023-03-20T21:50:54.143Z,135.45
2023-03-20T21:54:11.090Z,122.07
2023-03-20T21:56:46.422Z,124.45
2023-03-20T21:59:33.182Z,112.03
2023-03-20T22:07:51.987Z,113.75
2023-03-20T22:10:55.715Z,108.28
2023-03-20T22:13:44.486Z,110.22
2023-03-20T22:19:19.695Z,73.20
2023-03-20T22:30:19.503Z,104.65
2023-03-20T22:36:02.561Z,87.82
2023-03-20T22:41:37.827Z,63.85
2023-03-20T22:46:55.936Z,46.42
2023-03-20T22:49:23.106Z,43.95
2023-03-20T22:52:08.250Z,47.00
2023-03-20T22:54:38.947Z,76.28
2023-03-20T22:57:06.143Z,73.85
2023-03-20T22:59:33.338Z,81.90
2023-03-20T23:02:00.780Z,89.72
2023-03-20T23:04:29.934Z,99.45
2023-03-20T23:06:57.328Z,96.88
2023-03-20T23:09:24.560Z,93.80
2023-03-20T23:11:51.720Z,105.63
2023-03-20T23:14:21.553Z,106.15
2023-03-20T23:16:49.903Z,109.22
2023-03-20T23:19:17.437Z,116.40
2023-03-20T23:21:44.597Z,112.82
2023-03-20T23:24:11.806Z,99.20
2023-03-20T23:26:38.999Z,102.78
2023-03-20T23:29:06.430Z,105.22
2023-03-20T23:31:33.736Z,104.20
2023-03-20T23:34:01.017Z,117.55
2023-03-20T23:36:36.350Z,109.75
2023-03-20T23:39:05.183Z,109.45
2023-03-20T23:42:01.713Z,107.78
2023-03-20T23:44:19.637Z,105.60
2023-03-20T23:46:48.230Z,108.05
2023-03-20T23:49:16.434Z,104.40
2023-03-20T23:51:43.633Z,108.45
2023-03-20T23:54:10.946Z,109.40
2023-03-20T23:56:38.092Z,99.43
2023-03-20T23:59:15.018Z,105.90
